sensor_id;sensor_type;location;lat;lon;timestamp;P1;durP1;ratioP1;P2;durP2;ratioP2
21091;SDS011;10704;42.678;23.288;2023-07-31T00:00:34;5.32;;;3.63;;
21091;SDS011;10704;42.678;23.288;2023-07-31T00:03:00;6.32;;;3.72;;
21091;SDS011;10704;42.678;23.288;2023-07-31T00:05:25;4.82;;;3.58;;
21091;SDS011;10704;42.678;23.288;2023-07-31T00:07:51;5.43;;;3.65;;
21091;SDS011;10704;42.678;23.288;2023-07-31T00:10:19;8.30;;;3.67;;
21091;SDS011;10704;42.678;23.288;2023-07-31T00:12:45;5.60;;;3.30;;
21091;SDS011;10704;42.678;23.288;2023-07-31T00:15:11;4.82;;;3.15;;
21091;SDS011;10704;42.678;23.288;2023-07-31T00:17:38;6.70;;;3.85;;
21091;SDS011;10704;42.678;23.288;2023-07-31T00:20:04;6.60;;;4.18;;
21091;SDS011;10704;42.678;23.288;2023-07-31T00:22:30;6.72;;;4.78;;
21091;SDS011;10704;42.678;23.288;2023-07-31T00:24:56;9.60;;;4.82;;
21091;SDS011;10704;42.678;23.288;2023-07-31T00:27:23;7.80;;;5.13;;
21091;SDS011;10704;42.678;23.288;2023-07-31T00:29:49;8.93;;;5.47;;
21091;SDS011;10704;42.678;23.288;2023-07-31T00:32:15;6.07;;;4.95;;
21091;SDS011;10704;42.678;23.288;2023-07-31T00:34:41;6.43;;;5.03;;
21091;SDS011;10704;42.678;23.288;2023-07-31T00:37:07;8.07;;;4.95;;
21091;SDS011;10704;42.678;23.288;2023-07-31T00:39:34;7.72;;;5.45;;
21091;SDS011;10704;42.678;23.288;2023-07-31T00:42:00;6.88;;;5.63;;
21091;SDS011;10704;42.678;23.288;2023-07-31T00:44:26;9.40;;;7.35;;
21091;SDS011;10704;42.678;23.288;2023-07-31T00:46:52;8.65;;;6.68;;
21091;SDS011;10704;42.678;23.288;2023-07-31T00:49:19;8.10;;;6.70;;
21091;SDS011;10704;42.678;23.288;2023-07-31T00:51:48;8.88;;;7.43;;
21091;SDS011;10704;42.678;23.288;2023-07-31T00:54:14;10.02;;;7.30;;
21091;SDS011;10704;42.678;23.288;2023-07-31T00:56:40;10.82;;;7.90;;
21091;SDS011;10704;42.678;23.288;2023-07-31T00:59:06;10.07;;;7.78;;
21091;SDS011;10704;42.678;23.288;2023-07-31T01:01:32;11.43;;;8.32;;
21091;SDS011;10704;42.678;23.288;2023-07-31T01:03:58;10.05;;;8.88;;
21091;SDS011;10704;42.678;23.288;2023-07-31T01:09:47;12.77;;;10.25;;
21091;SDS011;10704;42.678;23.288;2023-07-31T01:12:20;12.93;;;10.32;;
21091;SDS011;10704;42.678;23.288;2023-07-31T01:15:01;15.50;;;11.88;;
21091;SDS011;10704;42.678;23.288;2023-07-31T01:17:31;17.60;;;13.23;;
21091;SDS011;10704;42.678;23.288;2023-07-31T01:19:59;16.23;;;13.85;;
21091;SDS011;10704;42.678;23.288;2023-07-31T01:26:12;20.00;;;15.18;;
21091;SDS011;10704;42.678;23.288;2023-07-31T01:28:31;19.33;;;15.63;;
21091;SDS011;10704;42.678;23.288;2023-07-31T01:31:20;22.17;;;18.00;;
21091;SDS011;10704;42.678;23.288;2023-07-31T01:33:49;22.95;;;18.10;;
21091;SDS011;10704;42.678;23.288;2023-07-31T01:36:18;26.30;;;19.20;;
21091;SDS011;10704;42.678;23.288;2023-07-31T01:38:45;25.45;;;19.63;;
21091;SDS011;10704;42.678;23.288;2023-07-31T01:41:11;27.73;;;21.13;;
21091;SDS011;10704;42.678;23.288;2023-07-31T01:43:36;28.52;;;22.38;;
21091;SDS011;10704;42.678;23.288;2023-07-31T01:46:04;27.67;;;22.08;;
21091;SDS011;10704;42.678;23.288;2023-07-31T01:48:30;30.60;;;23.98;;
21091;SDS011;10704;42.678;23.288;2023-07-31T01:51:00;29.08;;;22.63;;
21091;SDS011;10704;42.678;23.288;2023-07-31T01:53:27;31.60;;;23.88;;
21091;SDS011;10704;42.678;23.288;2023-07-31T01:55:53;30.13;;;24.98;;
21091;SDS011;10704;42.678;23.288;2023-07-31T01:58:19;28.58;;;22.95;;
21091;SDS011;10704;42.678;23.288;2023-07-31T02:00:44;29.75;;;24.17;;
21091;SDS011;10704;42.678;23.288;2023-07-31T02:03:11;32.17;;;23.90;;
21091;SDS011;10704;42.678;23.288;2023-07-31T02:05:43;32.65;;;24.13;;
21091;SDS011;10704;42.678;23.288;2023-07-31T02:08:10;34.15;;;26.08;;
21091;SDS011;10704;42.678;23.288;2023-07-31T02:10:36;29.42;;;23.95;;
21091;SDS011;10704;42.678;23.288;2023-07-31T02:13:01;30.55;;;24.52;;
21091;SDS011;10704;42.678;23.288;2023-07-31T02:15:32;30.88;;;24.42;;
21091;SDS011;10704;42.678;23.288;2023-07-31T02:17:58;31.27;;;24.88;;
21091;SDS011;10704;42.678;23.288;2023-07-31T02:20:24;31.73;;;24.35;;
21091;SDS011;10704;42.678;23.288;2023-07-31T02:22:50;29.63;;;24.67;;
21091;SDS011;10704;42.678;23.288;2023-07-31T02:25:16;30.42;;;24.00;;
21091;SDS011;10704;42.678;23.288;2023-07-31T02:27:44;29.63;;;23.50;;
21091;SDS011;10704;42.678;23.288;2023-07-31T02:30:10;30.05;;;23.52;;
21091;SDS011;10704;42.678;23.288;2023-07-31T02:32:36;32.63;;;24.23;;
21091;SDS011;10704;42.678;23.288;2023-07-31T02:35:02;28.95;;;23.70;;
21091;SDS011;10704;42.678;23.288;2023-07-31T02:37:29;30.75;;;24.90;;
21091;SDS011;10704;42.678;23.288;2023-07-31T02:39:55;28.73;;;23.70;;
21091;SDS011;10704;42.678;23.288;2023-07-31T02:42:21;29.33;;;23.58;;
21091;SDS011;10704;42.678;23.288;2023-07-31T02:44:46;28.98;;;23.17;;
21091;SDS011;10704;42.678;23.288;2023-07-31T02:47:12;29.70;;;21.58;;
21091;SDS011;10704;42.678;23.288;2023-07-31T02:49:38;26.70;;;22.33;;
21091;SDS011;10704;42.678;23.288;2023-07-31T02:52:04;28.65;;;23.00;;
21091;SDS011;10704;42.678;23.288;2023-07-31T02:54:30;29.02;;;22.70;;
21091;SDS011;10704;42.678;23.288;2023-07-31T02:56:56;29.42;;;22.95;;
21091;SDS011;10704;42.678;23.288;2023-07-31T02:59:22;27.60;;;22.88;;
21091;SDS011;10704;42.678;23.288;2023-07-31T03:01:48;27.90;;;22.70;;
21091;SDS011;10704;42.678;23.288;2023-07-31T03:04:14;32.38;;;24.80;;
21091;SDS011;10704;42.678;23.288;2023-07-31T03:06:40;30.10;;;23.48;;
21091;SDS011;10704;42.678;23.288;2023-07-31T03:09:06;32.47;;;23.42;;
21091;SDS011;10704;42.678;23.288;2023-07-31T03:11:31;31.48;;;24.95;;
21091;SDS011;10704;42.678;23.288;2023-07-31T03:13:57;31.88;;;25.80;;
21091;SDS011;10704;42.678;23.288;2023-07-31T03:16:23;32.40;;;25.75;;
21091;SDS011;10704;42.678;23.288;2023-07-31T03:18:49;30.55;;;25.23;;
21091;SDS011;10704;42.678;23.288;2023-07-31T03:21:15;35.85;;;26.10;;
21091;SDS011;10704;42.678;23.288;2023-07-31T03:23:41;31.38;;;23.95;;
21091;SDS011;10704;42.678;23.288;2023-07-31T03:26:08;38.17;;;25.73;;
21091;SDS011;10704;42.678;23.288;2023-07-31T03:28:35;30.15;;;23.75;;
21091;SDS011;10704;42.678;23.288;2023-07-31T03:31:04;30.90;;;24.50;;
21091;SDS011;10704;42.678;23.288;2023-07-31T03:33:30;31.00;;;23.85;;
21091;SDS011;10704;42.678;23.288;2023-07-31T03:35:57;32.15;;;24.33;;
21091;SDS011;10704;42.678;23.288;2023-07-31T03:38:23;28.35;;;23.58;;
21091;SDS011;10704;42.678;23.288;2023-07-31T03:40:48;29.50;;;23.73;;
21091;SDS011;10704;42.678;23.288;2023-07-31T03:43:15;32.58;;;24.92;;
21091;SDS011;10704;42.678;23.288;2023-07-31T03:45:41;31.65;;;24.65;;
21091;SDS011;10704;42.678;23.288;2023-07-31T03:48:07;32.35;;;23.20;;
21091;SDS011;10704;42.678;23.288;2023-07-31T03:50:33;31.02;;;24.00;;
21091;SDS011;10704;42.678;23.288;2023-07-31T03:53:00;35.90;;;25.88;;
21091;SDS011;10704;42.678;23.288;2023-07-31T03:55:25;34.20;;;25.13;;
21091;SDS011;10704;42.678;23.288;2023-07-31T03:57:51;35.88;;;26.60;;
21091;SDS011;10704;42.678;23.288;2023-07-31T04:00:17;34.85;;;25.85;;
21091;SDS011;10704;42.678;23.288;2023-07-31T04:02:43;31.75;;;23.90;;
21091;SDS011;10704;42.678;23.288;2023-07-31T04:05:09;37.15;;;26.92;;
21091;SDS011;10704;42.678;23.288;2023-07-31T04:07:35;35.92;;;27.02;;
21091;SDS011;10704;42.678;23.288;2023-07-31T04:10:01;36.05;;;26.48;;
21091;SDS011;10704;42.678;23.288;2023-07-31T04:12:28;33.22;;;25.27;;
21091;SDS011;10704;42.678;23.288;2023-07-31T04:14:54;33.03;;;26.25;;
21091;SDS011;10704;42.678;23.288;2023-07-31T04:17:20;35.05;;;26.42;;
21091;SDS011;10704;42.678;23.288;2023-07-31T04:19:46;34.28;;;25.48;;
21091;SDS011;10704;42.678;23.288;2023-07-31T04:22:12;34.15;;;25.10;;
21091;SDS011;10704;42.678;23.288;2023-07-31T04:24:37;39.55;;;26.23;;
21091;SDS011;10704;42.678;23.288;2023-07-31T04:27:03;34.60;;;25.42;;
21091;SDS011;10704;42.678;23.288;2023-07-31T04:29:29;37.72;;;26.33;;
21091;SDS011;10704;42.678;23.288;2023-07-31T04:31:55;34.80;;;25.67;;
21091;SDS011;10704;42.678;23.288;2023-07-31T04:34:21;34.30;;;26.38;;
21091;SDS011;10704;42.678;23.288;2023-07-31T04:36:47;32.97;;;24.75;;
21091;SDS011;10704;42.678;23.288;2023-07-31T04:39:12;31.50;;;24.30;;
21091;SDS011;10704;42.678;23.288;2023-07-31T04:41:38;33.10;;;24.85;;
21091;SDS011;10704;42.678;23.288;2023-07-31T04:44:04;37.83;;;26.30;;
21091;SDS011;10704;42.678;23.288;2023-07-31T04:46:30;32.38;;;24.55;;
21091;SDS011;10704;42.678;23.288;2023-07-31T04:48:56;32.83;;;23.88;;
21091;SDS011;10704;42.678;23.288;2023-07-31T04:51:22;34.13;;;24.30;;
21091;SDS011;10704;42.678;23.288;2023-07-31T04:53:48;32.92;;;24.05;;
21091;SDS011;10704;42.678;23.288;2023-07-31T04:56:15;32.28;;;23.85;;
21091;SDS011;10704;42.678;23.288;2023-07-31T04:58:41;33.42;;;23.42;;
21091;SDS011;10704;42.678;23.288;2023-07-31T05:01:07;32.70;;;23.40;;
21091;SDS011;10704;42.678;23.288;2023-07-31T05:03:33;31.98;;;23.38;;
21091;SDS011;10704;42.678;23.288;2023-07-31T05:05:58;31.55;;;23.95;;
21091;SDS011;10704;42.678;23.288;2023-07-31T05:08:24;30.75;;;21.70;;
21091;SDS011;10704;42.678;23.288;2023-07-31T05:10:50;31.95;;;22.60;;
21091;SDS011;10704;42.678;23.288;2023-07-31T05:13:16;30.17;;;21.63;;
21091;SDS011;10704;42.678;23.288;2023-07-31T05:15:42;27.83;;;21.40;;
21091;SDS011;10704;42.678;23.288;2023-07-31T05:18:08;26.60;;;21.35;;
21091;SDS011;10704;42.678;23.288;2023-07-31T05:20:34;32.65;;;23.02;;
21091;SDS011;10704;42.678;23.288;2023-07-31T05:22:59;28.15;;;21.30;;
21091;SDS011;10704;42.678;23.288;2023-07-31T05:25:25;27.13;;;21.20;;
21091;SDS011;10704;42.678;23.288;2023-07-31T05:27:51;27.50;;;18.42;;
21091;SDS011;10704;42.678;23.288;2023-07-31T05:30:17;22.90;;;18.48;;
21091;SDS011;10704;42.678;23.288;2023-07-31T05:32:43;25.27;;;19.30;;
21091;SDS011;10704;42.678;23.288;2023-07-31T05:35:09;22.77;;;18.70;;
21091;SDS011;10704;42.678;23.288;2023-07-31T05:37:34;23.13;;;16.25;;
21091;SDS011;10704;42.678;23.288;2023-07-31T05:40:01;19.17;;;15.30;;
21091;SDS011;10704;42.678;23.288;2023-07-31T05:42:27;17.60;;;14.82;;
21091;SDS011;10704;42.678;23.288;2023-07-31T05:44:52;18.83;;;13.77;;
21091;SDS011;10704;42.678;23.288;2023-07-31T05:47:18;16.77;;;13.60;;
21091;SDS011;10704;42.678;23.288;2023-07-31T05:49:44;16.52;;;12.70;;
21091;SDS011;10704;42.678;23.288;2023-07-31T05:52:10;14.55;;;11.73;;
21091;SDS011;10704;42.678;23.288;2023-07-31T05:54:36;16.85;;;12.27;;
21091;SDS011;10704;42.678;23.288;2023-07-31T05:57:02;18.17;;;13.20;;
21091;SDS011;10704;42.678;23.288;2023-07-31T05:59:28;16.70;;;11.38;;
21091;SDS011;10704;42.678;23.288;2023-07-31T06:01:54;12.63;;;9.75;;
21091;SDS011;10704;42.678;23.288;2023-07-31T06:04:20;12.30;;;9.57;;
21091;SDS011;10704;42.678;23.288;2023-07-31T06:06:46;12.02;;;8.45;;
21091;SDS011;10704;42.678;23.288;2023-07-31T06:09:12;9.57;;;7.13;;
21091;SDS011;10704;42.678;23.288;2023-07-31T06:11:39;8.75;;;5.93;;
21091;SDS011;10704;42.678;23.288;2023-07-31T06:14:05;8.63;;;6.05;;
21091;SDS011;10704;42.678;23.288;2023-07-31T06:16:30;10.07;;;6.78;;
21091;SDS011;10704;42.678;23.288;2023-07-31T06:18:56;8.20;;;6.10;;
21091;SDS011;10704;42.678;23.288;2023-07-31T06:21:22;8.85;;;6.45;;
21091;SDS011;10704;42.678;23.288;2023-07-31T06:23:48;8.57;;;6.20;;
21091;SDS011;10704;42.678;23.288;2023-07-31T06:26:14;12.98;;;6.75;;
21091;SDS011;10704;42.678;23.288;2023-07-31T06:28:40;9.95;;;5.88;;
21091;SDS011;10704;42.678;23.288;2023-07-31T06:31:05;8.68;;;6.10;;
21091;SDS011;10704;42.678;23.288;2023-07-31T06:33:31;13.38;;;5.80;;
21091;SDS011;10704;42.678;23.288;2023-07-31T06:35:58;11.07;;;6.22;;
21091;SDS011;10704;42.678;23.288;2023-07-31T06:38:24;10.95;;;5.75;;
21091;SDS011;10704;42.678;23.288;2023-07-31T06:40:51;8.80;;;5.85;;
21091;SDS011;10704;42.678;23.288;2023-07-31T06:43:17;10.18;;;5.68;;
21091;SDS011;10704;42.678;23.288;2023-07-31T06:45:43;8.57;;;5.28;;
21091;SDS011;10704;42.678;23.288;2023-07-31T06:48:08;7.97;;;5.07;;
21091;SDS011;10704;42.678;23.288;2023-07-31T06:50:34;6.93;;;4.70;;
21091;SDS011;10704;42.678;23.288;2023-07-31T06:53:00;10.77;;;5.15;;
21091;SDS011;10704;42.678;23.288;2023-07-31T06:55:27;10.98;;;5.43;;
21091;SDS011;10704;42.678;23.288;2023-07-31T06:57:54;7.20;;;5.05;;
21091;SDS011;10704;42.678;23.288;2023-07-31T07:00:21;9.52;;;5.13;;
21091;SDS011;10704;42.678;23.288;2023-07-31T07:02:48;8.55;;;5.18;;
21091;SDS011;10704;42.678;23.288;2023-07-31T07:05:15;7.15;;;5.53;;
21091;SDS011;10704;42.678;23.288;2023-07-31T07:07:41;9.23;;;6.07;;
21091;SDS011;10704;42.678;23.288;2023-07-31T07:10:08;9.07;;;5.03;;
21091;SDS011;10704;42.678;23.288;2023-07-31T07:12:34;7.28;;;4.55;;
21091;SDS011;10704;42.678;23.288;2023-07-31T07:15:00;7.45;;;4.10;;
21091;SDS011;10704;42.678;23.288;2023-07-31T07:17:27;8.68;;;5.20;;
21091;SDS011;10704;42.678;23.288;2023-07-31T07:19:56;6.97;;;4.30;;
21091;SDS011;10704;42.678;23.288;2023-07-31T07:22:22;6.60;;;3.67;;
21091;SDS011;10704;42.678;23.288;2023-07-31T07:24:49;5.55;;;3.90;;
21091;SDS011;10704;42.678;23.288;2023-07-31T07:27:15;6.20;;;3.80;;
21091;SDS011;10704;42.678;23.288;2023-07-31T07:29:41;6.90;;;4.22;;
21091;SDS011;10704;42.678;23.288;2023-07-31T07:32:07;11.13;;;5.00;;
21091;SDS011;10704;42.678;23.288;2023-07-31T07:34:34;9.00;;;4.80;;
21091;SDS011;10704;42.678;23.288;2023-07-31T07:37:00;7.82;;;3.95;;
21091;SDS011;10704;42.678;23.288;2023-07-31T07:39:26;7.18;;;4.60;;
21091;SDS011;10704;42.678;23.288;2023-07-31T07:41:51;5.30;;;3.40;;
21091;SDS011;10704;42.678;23.288;2023-07-31T07:44:19;5.60;;;3.30;;
21091;SDS011;10704;42.678;23.288;2023-07-31T07:46:45;6.45;;;4.00;;
21091;SDS011;10704;42.678;23.288;2023-07-31T07:49:11;6.13;;;3.55;;
21091;SDS011;10704;42.678;23.288;2023-07-31T07:51:36;8.55;;;3.63;;
21091;SDS011;10704;42.678;23.288;2023-07-31T07:54:02;4.18;;;2.92;;
21091;SDS011;10704;42.678;23.288;2023-07-31T07:56:28;8.07;;;3.42;;
21091;SDS011;10704;42.678;23.288;2023-07-31T07:58:54;5.78;;;3.67;;
21091;SDS011;10704;42.678;23.288;2023-07-31T08:01:20;5.72;;;3.00;;
21091;SDS011;10704;42.678;23.288;2023-07-31T08:03:46;7.00;;;3.95;;
21091;SDS011;10704;42.678;23.288;2023-07-31T08:06:13;5.75;;;3.42;;
21091;SDS011;10704;42.678;23.288;2023-07-31T08:08:39;6.40;;;3.60;;
21091;SDS011;10704;42.678;23.288;2023-07-31T08:11:05;6.53;;;3.63;;
21091;SDS011;10704;42.678;23.288;2023-07-31T08:13:31;9.52;;;5.00;;
21091;SDS011;10704;42.678;23.288;2023-07-31T08:15:58;7.75;;;4.07;;
21091;SDS011;10704;42.678;23.288;2023-07-31T08:18:23;8.48;;;4.18;;
21091;SDS011;10704;42.678;23.288;2023-07-31T08:20:49;8.70;;;3.95;;
21091;SDS011;10704;42.678;23.288;2023-07-31T08:23:15;5.68;;;3.83;;
21091;SDS011;10704;42.678;23.288;2023-07-31T08:25:41;7.97;;;3.67;;
21091;SDS011;10704;42.678;23.288;2023-07-31T08:28:07;5.45;;;3.42;;
21091;SDS011;10704;42.678;23.288;2023-07-31T08:30:33;7.38;;;3.97;;
21091;SDS011;10704;42.678;23.288;2023-07-31T08:32:59;7.28;;;3.90;;
21091;SDS011;10704;42.678;23.288;2023-07-31T08:35:26;6.97;;;3.15;;
21091;SDS011;10704;42.678;23.288;2023-07-31T08:37:53;6.25;;;3.25;;
21091;SDS011;10704;42.678;23.288;2023-07-31T08:40:19;6.90;;;3.60;;
21091;SDS011;10704;42.678;23.288;2023-07-31T08:42:47;5.63;;;3.55;;
21091;SDS011;10704;42.678;23.288;2023-07-31T08:45:17;7.65;;;3.70;;
21091;SDS011;10704;42.678;23.288;2023-07-31T08:47:45;8.23;;;3.85;;
21091;SDS011;10704;42.678;23.288;2023-07-31T08:50:17;6.30;;;3.45;;
21091;SDS011;10704;42.678;23.288;2023-07-31T08:52:47;5.85;;;3.80;;
21091;SDS011;10704;42.678;23.288;2023-07-31T08:55:14;6.18;;;3.97;;
21091;SDS011;10704;42.678;23.288;2023-07-31T08:57:41;5.63;;;3.15;;
21091;SDS011;10704;42.678;23.288;2023-07-31T09:00:08;4.68;;;3.15;;
21091;SDS011;10704;42.678;23.288;2023-07-31T09:05:41;6.03;;;3.05;;
21091;SDS011;10704;42.678;23.288;2023-07-31T09:08:10;11.48;;;4.40;;
21091;SDS011;10704;42.678;23.288;2023-07-31T09:10:43;8.32;;;5.10;;
21091;SDS011;10704;42.678;23.288;2023-07-31T09:13:15;7.60;;;3.47;;
21091;SDS011;10704;42.678;23.288;2023-07-31T09:15:42;6.00;;;3.58;;
21091;SDS011;10704;42.678;23.288;2023-07-31T09:18:09;6.50;;;4.03;;
21091;SDS011;10704;42.678;23.288;2023-07-31T09:20:36;4.95;;;3.10;;
21091;SDS011;10704;42.678;23.288;2023-07-31T09:23:10;6.57;;;4.03;;
21091;SDS011;10704;42.678;23.288;2023-07-31T09:25:37;7.03;;;3.97;;
21091;SDS011;10704;42.678;23.288;2023-07-31T09:28:05;6.30;;;3.20;;
21091;SDS011;10704;42.678;23.288;2023-07-31T09:30:44;7.78;;;3.75;;
21091;SDS011;10704;42.678;23.288;2023-07-31T09:33:18;6.93;;;4.13;;
21091;SDS011;10704;42.678;23.288;2023-07-31T09:35:45;5.10;;;3.35;;
21091;SDS011;10704;42.678;23.288;2023-07-31T09:38:13;6.78;;;4.05;;
21091;SDS011;10704;42.678;23.288;2023-07-31T09:40:41;7.95;;;4.47;;
21091;SDS011;10704;42.678;23.288;2023-07-31T09:43:10;6.80;;;4.13;;
21091;SDS011;10704;42.678;23.288;2023-07-31T09:45:43;5.43;;;3.42;;
21091;SDS011;10704;42.678;23.288;2023-07-31T09:48:14;5.93;;;3.22;;
21091;SDS011;10704;42.678;23.288;2023-07-31T09:50:44;4.82;;;3.22;;
21091;SDS011;10704;42.678;23.288;2023-07-31T09:53:12;8.32;;;3.83;;
21091;SDS011;10704;42.678;23.288;2023-07-31T09:55:39;5.95;;;3.63;;
21091;SDS011;10704;42.678;23.288;2023-07-31T09:58:06;7.57;;;3.00;;
21091;SDS011;10704;42.678;23.288;2023-07-31T10:00:37;5.25;;;2.80;;
21091;SDS011;10704;42.678;23.288;2023-07-31T10:03:09;4.25;;;2.78;;
21091;SDS011;10704;42.678;23.288;2023-07-31T10:08:12;6.40;;;2.80;;
21091;SDS011;10704;42.678;23.288;2023-07-31T10:10:44;8.30;;;2.72;;
21091;SDS011;10704;42.678;23.288;2023-07-31T10:13:11;5.47;;;2.60;;
21091;SDS011;10704;42.678;23.288;2023-07-31T10:15:38;3.17;;;2.33;;
21091;SDS011;10704;42.678;23.288;2023-07-31T10:18:06;3.30;;;2.50;;
21091;SDS011;10704;42.678;23.288;2023-07-31T10:20:32;5.65;;;2.25;;
21091;SDS011;10704;42.678;23.288;2023-07-31T10:22:59;5.00;;;2.28;;
21091;SDS011;10704;42.678;23.288;2023-07-31T10:25:26;5.13;;;2.45;;
21091;SDS011;10704;42.678;23.288;2023-07-31T10:27:53;4.07;;;2.35;;
21091;SDS011;10704;42.678;23.288;2023-07-31T10:30:24;4.53;;;2.80;;
21091;SDS011;10704;42.678;23.288;2023-07-31T10:32:53;5.53;;;2.80;;
21091;SDS011;10704;42.678;23.288;2023-07-31T10:35:19;3.72;;;2.40;;
21091;SDS011;10704;42.678;23.288;2023-07-31T10:37:47;3.50;;;2.15;;
21091;SDS011;10704;42.678;23.288;2023-07-31T10:40:26;5.10;;;2.92;;
21091;SDS011;10704;42.678;23.288;2023-07-31T10:42:56;7.07;;;4.05;;
21091;SDS011;10704;42.678;23.288;2023-07-31T10:45:30;4.57;;;2.92;;
21091;SDS011;10704;42.678;23.288;2023-07-31T10:48:02;4.65;;;2.70;;
21091;SDS011;10704;42.678;23.288;2023-07-31T10:50:37;4.78;;;2.78;;
21091;SDS011;10704;42.678;23.288;2023-07-31T10:53:04;3.67;;;2.60;;
21091;SDS011;10704;42.678;23.288;2023-07-31T10:58:08;4.47;;;2.33;;
21091;SDS011;10704;42.678;23.288;2023-07-31T11:00:37;5.85;;;2.72;;
21091;SDS011;10704;42.678;23.288;2023-07-31T11:03:09;4.13;;;2.58;;
21091;SDS011;10704;42.678;23.288;2023-07-31T11:05:48;3.63;;;2.63;;
21091;SDS011;10704;42.678;23.288;2023-07-31T11:10:49;3.40;;;1.92;;
21091;SDS011;10704;42.678;23.288;2023-07-31T11:13:42;3.40;;;2.20;;
21091;SDS011;10704;42.678;23.288;2023-07-31T11:16:16;4.13;;;2.45;;
21091;SDS011;10704;42.678;23.288;2023-07-31T11:18:43;9.38;;;4.97;;
21091;SDS011;10704;42.678;23.288;2023-07-31T11:21:15;5.93;;;2.85;;
21091;SDS011;10704;42.678;23.288;2023-07-31T11:23:51;7.70;;;2.72;;
21091;SDS011;10704;42.678;23.288;2023-07-31T11:26:19;5.82;;;2.13;;
21091;SDS011;10704;42.678;23.288;2023-07-31T11:28:48;4.35;;;2.13;;
21091;SDS011;10704;42.678;23.288;2023-07-31T11:31:15;3.70;;;2.17;;
21091;SDS011;10704;42.678;23.288;2023-07-31T11:33:41;4.80;;;2.78;;
21091;SDS011;10704;42.678;23.288;2023-07-31T11:36:16;3.35;;;2.42;;
21091;SDS011;10704;42.678;23.288;2023-07-31T11:38:43;8.32;;;2.70;;
21091;SDS011;10704;42.678;23.288;2023-07-31T11:41:09;8.23;;;3.40;;
21091;SDS011;10704;42.678;23.288;2023-07-31T11:43:35;5.03;;;3.28;;
21091;SDS011;10704;42.678;23.288;2023-07-31T11:46:03;6.53;;;3.03;;
21091;SDS011;10704;42.678;23.288;2023-07-31T11:48:32;5.28;;;2.65;;
21091;SDS011;10704;42.678;23.288;2023-07-31T11:51:04;4.25;;;2.80;;
21091;SDS011;10704;42.678;23.288;2023-07-31T11:53:36;4.32;;;2.90;;
21091;SDS011;10704;42.678;23.288;2023-07-31T11:56:36;5.38;;;3.50;;
21091;SDS011;10704;42.678;23.288;2023-07-31T11:59:02;4.68;;;2.83;;
21091;SDS011;10704;42.678;23.288;2023-07-31T12:01:30;6.30;;;2.95;;
21091;SDS011;10704;42.678;23.288;2023-07-31T12:03:56;5.90;;;3.40;;
21091;SDS011;10704;42.678;23.288;2023-07-31T12:06:33;6.10;;;4.00;;
21091;SDS011;10704;42.678;23.288;2023-07-31T12:09:05;4.90;;;3.90;;
21091;SDS011;10704;42.678;23.288;2023-07-31T12:11:31;7.22;;;4.50;;
21091;SDS011;10704;42.678;23.288;2023-07-31T12:13:57;5.80;;;4.32;;
21091;SDS011;10704;42.678;23.288;2023-07-31T12:16:25;7.68;;;5.78;;
21091;SDS011;10704;42.678;23.288;2023-07-31T12:18:53;9.40;;;6.72;;
21091;SDS011;10704;42.678;23.288;2023-07-31T12:21:19;9.27;;;6.93;;
21091;SDS011;10704;42.678;23.288;2023-07-31T12:23:45;7.78;;;6.13;;
21091;SDS011;10704;42.678;23.288;2023-07-31T12:26:17;8.48;;;6.28;;
21091;SDS011;10704;42.678;23.288;2023-07-31T12:28:44;9.73;;;6.25;;
21091;SDS011;10704;42.678;23.288;2023-07-31T12:31:12;9.60;;;5.43;;
21091;SDS011;10704;42.678;23.288;2023-07-31T12:33:39;7.00;;;5.30;;
21091;SDS011;10704;42.678;23.288;2023-07-31T12:36:11;7.45;;;5.30;;
21091;SDS011;10704;42.678;23.288;2023-07-31T12:38:41;9.18;;;5.50;;
21091;SDS011;10704;42.678;23.288;2023-07-31T12:41:07;5.75;;;4.75;;
21091;SDS011;10704;42.678;23.288;2023-07-31T12:43:36;6.22;;;5.35;;
21091;SDS011;10704;42.678;23.288;2023-07-31T12:46:03;6.43;;;5.15;;
21091;SDS011;10704;42.678;23.288;2023-07-31T12:48:30;9.50;;;6.18;;
21091;SDS011;10704;42.678;23.288;2023-07-31T12:50:57;8.85;;;5.93;;
21091;SDS011;10704;42.678;23.288;2023-07-31T12:53:23;11.88;;;6.47;;
21091;SDS011;10704;42.678;23.288;2023-07-31T12:55:49;10.13;;;6.10;;
21091;SDS011;10704;42.678;23.288;2023-07-31T12:58:15;10.32;;;6.45;;
21091;SDS011;10704;42.678;23.288;2023-07-31T13:00:41;10.35;;;6.35;;
21091;SDS011;10704;42.678;23.288;2023-07-31T13:03:08;10.85;;;7.63;;
21091;SDS011;10704;42.678;23.288;2023-07-31T13:05:34;11.15;;;7.00;;
21091;SDS011;10704;42.678;23.288;2023-07-31T13:08:00;7.97;;;6.03;;
21091;SDS011;10704;42.678;23.288;2023-07-31T13:10:26;8.57;;;6.50;;
21091;SDS011;10704;42.678;23.288;2023-07-31T13:12:54;7.20;;;6.25;;
21091;SDS011;10704;42.678;23.288;2023-07-31T13:15:20;7.35;;;6.10;;
21091;SDS011;10704;42.678;23.288;2023-07-31T13:17:46;9.73;;;6.30;;
21091;SDS011;10704;42.678;23.288;2023-07-31T13:20:12;9.05;;;6.20;;
21091;SDS011;10704;42.678;23.288;2023-07-31T13:22:38;7.40;;;6.22;;
21091;SDS011;10704;42.678;23.288;2023-07-31T13:25:04;8.00;;;6.00;;
21091;SDS011;10704;42.678;23.288;2023-07-31T13:27:31;7.20;;;5.07;;
21091;SDS011;10704;42.678;23.288;2023-07-31T13:29:57;6.10;;;5.07;;
21091;SDS011;10704;42.678;23.288;2023-07-31T13:32:23;7.13;;;4.75;;
21091;SDS011;10704;42.678;23.288;2023-07-31T13:34:48;8.00;;;4.80;;
21091;SDS011;10704;42.678;23.288;2023-07-31T13:37:15;8.07;;;4.35;;
21091;SDS011;10704;42.678;23.288;2023-07-31T13:39:41;8.15;;;5.50;;
21091;SDS011;10704;42.678;23.288;2023-07-31T13:42:07;6.57;;;5.13;;
21091;SDS011;10704;42.678;23.288;2023-07-31T13:44:36;8.13;;;5.40;;
21091;SDS011;10704;42.678;23.288;2023-07-31T13:47:03;8.55;;;4.88;;
21091;SDS011;10704;42.678;23.288;2023-07-31T13:49:29;6.63;;;4.72;;
21091;SDS011;10704;42.678;23.288;2023-07-31T13:51:55;10.00;;;4.75;;
21091;SDS011;10704;42.678;23.288;2023-07-31T13:54:22;7.10;;;4.22;;
21091;SDS011;10704;42.678;23.288;2023-07-31T13:56:49;7.32;;;4.78;;
21091;SDS011;10704;42.678;23.288;2023-07-31T13:59:15;7.82;;;5.35;;
21091;SDS011;10704;42.678;23.288;2023-07-31T14:01:42;7.13;;;4.90;;
21091;SDS011;10704;42.678;23.288;2023-07-31T14:04:08;7.90;;;4.57;;
21091;SDS011;10704;42.678;23.288;2023-07-31T14:06:34;6.72;;;5.10;;
21091;SDS011;10704;42.678;23.288;2023-07-31T14:09:00;11.45;;;5.40;;
21091;SDS011;10704;42.678;23.288;2023-07-31T14:11:26;7.75;;;5.57;;
21091;SDS011;10704;42.678;23.288;2023-07-31T14:13:52;6.53;;;4.85;;
21091;SDS011;10704;42.678;23.288;2023-07-31T14:16:18;6.30;;;4.68;;
21091;SDS011;10704;42.678;23.288;2023-07-31T14:18:44;5.95;;;4.78;;
21091;SDS011;10704;42.678;23.288;2023-07-31T14:21:13;6.20;;;5.03;;
21091;SDS011;10704;42.678;23.288;2023-07-31T14:23:39;9.27;;;4.50;;
21091;SDS011;10704;42.678;23.288;2023-07-31T14:26:05;9.13;;;4.60;;
21091;SDS011;10704;42.678;23.288;2023-07-31T14:28:31;6.75;;;4.25;;
21091;SDS011;10704;42.678;23.288;2023-07-31T14:30:57;6.93;;;4.65;;
21091;SDS011;10704;42.678;23.288;2023-07-31T14:33:24;9.07;;;5.10;;
21091;SDS011;10704;42.678;23.288;2023-07-31T14:35:50;7.45;;;5.05;;
21091;SDS011;10704;42.678;23.288;2023-07-31T14:38:16;7.15;;;4.28;;
21091;SDS011;10704;42.678;23.288;2023-07-31T14:40:42;10.27;;;4.85;;
21091;SDS011;10704;42.678;23.288;2023-07-31T14:43:08;7.72;;;4.65;;